sensor_id;sensor_type;location;lat;lon;timestamp;pressure;altitude;pressure_sealevel;temperature;humidity
10466;BME280;5280;42.600;23.556;2023-02-28T00:00:10;93824.41;;;7.02;100.00
10466;BME280;5280;42.600;23.556;2023-02-28T00:02:38;93763.56;;;6.64;100.00
10466;BME280;5280;42.600;23.556;2023-02-28T00:05:06;93849.22;;;7.12;100.00
10466;BME280;5280;42.600;23.556;2023-02-28T00:07:34;93836.72;;;7.16;100.00
10466;BME280;5280;42.600;23.556;2023-02-28T00:10:03;93834.75;;;7.19;100.00
10466;BME280;5280;42.600;23.556;2023-02-28T00:12:32;93816.13;;;7.08;100.00
10466;BME280;5280;42.600;23.556;2023-02-28T00:14:59;93809.28;;;7.06;100.00
10466;BME280;5280;42.600;23.556;2023-02-28T00:17:26;93831.28;;;7.19;100.00
10466;BME280;5280;42.600;23.556;2023-02-28T00:19:53;93834.25;;;7.13;100.00
10466;BME280;5280;42.600;23.556;2023-02-28T00:22:20;93847.88;;;7.19;100.00
10466;BME280;5280;42.600;23.556;2023-02-28T00:24:48;93792.69;;;6.75;100.00
10466;BME280;5280;42.600;23.556;2023-02-28T00:27:16;93837.88;;;7.26;100.00
10466;BME280;5280;42.600;23.556;2023-02-28T00:29:43;93824.78;;;7.10;100.00
10466;BME280;5280;42.600;23.556;2023-02-28T00:32:10;93785.00;;;6.72;100.00
10466;BME280;5280;42.600;23.556;2023-02-28T00:34:36;93838.16;;;6.91;100.00
10466;BME280;5280;42.600;23.556;2023-02-28T00:37:04;93831.78;;;6.96;100.00
10466;BME280;5280;42.600;23.556;2023-02-28T00:39:34;93804.47;;;6.68;100.00
10466;BME280;5280;42.600;23.556;2023-02-28T00:42:01;93835.06;;;6.99;100.00
10466;BME280;5280;42.600;23.556;2023-02-28T00:44:29;93844.88;;;7.11;100.00
10466;BME280;5280;42.600;23.556;2023-02-28T00:46:57;93848.16;;;7.15;100.00
10466;BME280;5280;42.600;23.556;2023-02-28T00:49:24;93844.41;;;7.19;100.00
10466;BME280;5280;42.600;23.556;2023-02-28T00:51:52;93832.88;;;7.21;100.00
10466;BME280;5280;42.600;23.556;2023-02-28T00:54:20;93820.03;;;7.17;100.00
10466;BME280;5280;42.600;23.556;2023-02-28T00:56:48;93832.03;;;7.21;100.00
10466;BME280;5280;42.600;23.556;2023-02-28T00:59:16;93824.81;;;7.24;100.00
10466;BME280;5280;42.600;23.556;2023-02-28T01:01:45;93802.28;;;7.20;100.00
10466;BME280;5280;42.600;23.556;2023-02-28T01:04:13;93801.78;;;7.14;100.00
10466;BME280;5280;42.600;23.556;2023-02-28T01:06:41;93750.31;;;6.81;100.00
10466;BME280;5280;42.600;23.556;2023-02-28T01:09:08;93816.25;;;7.21;100.00
10466;BME280;5280;42.600;23.556;2023-02-28T01:11:36;93811.28;;;7.16;100.00
10466;BME280;5280;42.600;23.556;2023-02-28T01:14:05;93811.94;;;7.20;100.00
10466;BME280;5280;42.600;23.556;2023-02-28T01:16:32;93811.28;;;7.16;100.00
10466;BME280;5280;42.600;23.556;2023-02-28T01:19:01;93814.75;;;7.17;100.00
10466;BME280;5280;42.600;23.556;2023-02-28T01:21:28;93815.69;;;7.16;100.00
10466;BME280;5280;42.600;23.556;2023-02-28T01:23:57;93709.00;;;6.39;100.00
10466;BME280;5280;42.600;23.556;2023-02-28T01:26:24;93836.06;;;7.12;100.00
10466;BME280;5280;42.600;23.556;2023-02-28T01:28:53;93765.06;;;6.68;100.00
10466;BME280;5280;42.600;23.556;2023-02-28T01:31:22;93826.84;;;7.05;100.00
10466;BME280;5280;42.600;23.556;2023-02-28T01:33:50;93823.84;;;7.11;100.00
10466;BME280;5280;42.600;23.556;2023-02-28T01:36:21;93771.19;;;6.69;100.00
10466;BME280;5280;42.600;23.556;2023-02-28T01:38:48;93764.72;;;6.74;100.00
10466;BME280;5280;42.600;23.556;2023-02-28T01:41:18;93807.00;;;7.00;100.00
10466;BME280;5280;42.600;23.556;2023-02-28T01:43:54;93814.69;;;7.03;100.00
10466;BME280;5280;42.600;23.556;2023-02-28T01:46:22;93811.25;;;7.02;100.00
10466;BME280;5280;42.600;23.556;2023-02-28T01:48:53;93756.53;;;6.65;100.00
10466;BME280;5280;42.600;23.556;2023-02-28T01:51:27;93831.94;;;6.92;100.00
10466;BME280;5280;42.600;23.556;2023-02-28T01:54:00;93723.94;;;6.23;100.00
10466;BME280;5280;42.600;23.556;2023-02-28T01:56:32;93768.31;;;6.58;100.00
10466;BME280;5280;42.600;23.556;2023-02-28T01:59:01;93828.56;;;6.90;100.00
10466;BME280;5280;42.600;23.556;2023-02-28T02:01:29;93831.28;;;6.89;100.00
10466;BME280;5280;42.600;23.556;2023-02-28T02:03:59;93830.97;;;6.79;100.00
10466;BME280;5280;42.600;23.556;2023-02-28T02:06:30;93832.16;;;6.74;100.00
10466;BME280;5280;42.600;23.556;2023-02-28T02:08:57;93847.06;;;6.73;100.00
10466;BME280;5280;42.600;23.556;2023-02-28T02:11:25;93851.84;;;6.67;100.00
10466;BME280;5280;42.600;23.556;2023-02-28T02:16:59;93827.91;;;6.57;100.00
10466;BME280;5280;42.600;23.556;2023-02-28T02:23:09;93819.53;;;6.35;100.00
10466;BME280;5280;42.600;23.556;2023-02-28T02:25:50;93848.66;;;6.46;100.00
10466;BME280;5280;42.600;23.556;2023-02-28T02:28:54;93848.81;;;6.43;100.00
10466;BME280;5280;42.600;23.556;2023-02-28T02:31:48;93841.28;;;6.37;100.00
10466;BME280;5280;42.600;23.556;2023-02-28T02:34:40;93847.63;;;6.33;100.00
10466;BME280;5280;42.600;23.556;2023-02-28T02:37:15;93818.19;;;6.12;100.00
10466;BME280;5280;42.600;23.556;2023-02-28T02:39:50;93848.31;;;6.21;100.00
10466;BME280;5280;42.600;23.556;2023-02-28T02:42:24;93827.38;;;6.03;100.00
10466;BME280;5280;42.600;23.556;2023-02-28T02:44:59;93855.06;;;6.09;100.00
10466;BME280;5280;42.600;23.556;2023-02-28T02:47:30;93839.41;;;5.92;100.00
10466;BME280;5280;42.600;23.556;2023-02-28T02:50:05;93850.66;;;5.94;100.00
10466;BME280;5280;42.600;23.556;2023-02-28T02:52:38;93862.31;;;5.88;100.00
10466;BME280;5280;42.600;23.556;2023-02-28T02:55:07;93848.41;;;5.71;100.00
10466;BME280;5280;42.600;23.556;2023-02-28T02:57:40;93864.13;;;5.71;100.00
10466;BME280;5280;42.600;23.556;2023-02-28T03:00:12;93867.53;;;5.73;100.00
10466;BME280;5280;42.600;23.556;2023-02-28T03:02:41;93812.03;;;5.32;100.00
10466;BME280;5280;42.600;23.556;2023-02-28T03:05:15;93801.25;;;5.20;100.00
10466;BME280;5280;42.600;23.556;2023-02-28T03:07:44;93879.75;;;5.56;100.00
10466;BME280;5280;42.600;23.556;2023-02-28T03:10:31;93874.41;;;5.58;100.00
10466;BME280;5280;42.600;23.556;2023-02-28T03:13:18;93877.00;;;5.58;100.00
10466;BME280;5280;42.600;23.556;2023-02-28T03:15:58;93886.06;;;5.52;100.00
10466;BME280;5280;42.600;23.556;2023-02-28T03:18:36;93876.59;;;5.50;100.00
10466;BME280;5280;42.600;23.556;2023-02-28T03:21:18;93880.28;;;5.46;100.00
10466;BME280;5280;42.600;23.556;2023-02-28T03:23:55;93877.84;;;5.43;100.00
10466;BME280;5280;42.600;23.556;2023-02-28T03:26:27;93896.69;;;5.49;100.00
10466;BME280;5280;42.600;23.556;2023-02-28T03:29:02;93861.06;;;5.12;100.00
10466;BME280;5280;42.600;23.556;2023-02-28T03:31:32;93896.31;;;5.40;100.00
10466;BME280;5280;42.600;23.556;2023-02-28T03:34:08;93846.56;;;5.05;100.00
10466;BME280;5280;42.600;23.556;2023-02-28T03:36:41;93910.69;;;5.33;100.00
10466;BME280;5280;42.600;23.556;2023-02-28T03:39:14;93906.50;;;5.46;100.00
10466;BME280;5280;42.600;23.556;2023-02-28T03:41:44;93909.06;;;5.47;100.00
10466;BME280;5280;42.600;23.556;2023-02-28T03:44:17;93903.81;;;5.47;100.00
10466;BME280;5280;42.600;23.556;2023-02-28T03:46:52;93920.53;;;5.45;100.00
10466;BME280;5280;42.600;23.556;2023-02-28T03:49:23;93883.69;;;5.31;100.00
10466;BME280;5280;42.600;23.556;2023-02-28T03:51:53;93863.06;;;5.07;100.00
10466;BME280;5280;42.600;23.556;2023-02-28T03:54:26;93917.34;;;5.38;100.00
10466;BME280;5280;42.600;23.556;2023-02-28T03:56:59;93898.34;;;5.35;100.00
10466;BME280;5280;42.600;23.556;2023-02-28T03:59:34;93915.47;;;5.42;100.00
10466;BME280;5280;42.600;23.556;2023-02-28T04:02:04;93864.59;;;5.11;100.00
10466;BME280;5280;42.600;23.556;2023-02-28T04:04:31;93883.25;;;5.23;100.00
10466;BME280;5280;42.600;23.556;2023-02-28T04:07:04;93881.44;;;5.23;100.00
10466;BME280;5280;42.600;23.556;2023-02-28T04:09:36;93881.84;;;5.15;100.00
10466;BME280;5280;42.600;23.556;2023-02-28T04:12:04;93876.63;;;5.15;100.00
10466;BME280;5280;42.600;23.556;2023-02-28T04:14:31;93856.00;;;4.92;100.00
10466;BME280;5280;42.600;23.556;2023-02-28T04:16:57;93916.06;;;5.30;100.00
10466;BME280;5280;42.600;23.556;2023-02-28T04:19:25;93836.56;;;4.79;100.00
10466;BME280;5280;42.600;23.556;2023-02-28T04:21:52;93849.19;;;4.88;100.00
10466;BME280;5280;42.600;23.556;2023-02-28T04:24:23;93852.50;;;4.92;100.00
10466;BME280;5280;42.600;23.556;2023-02-28T04:26:51;93906.84;;;5.23;100.00
10466;BME280;5280;42.600;23.556;2023-02-28T04:29:20;93920.44;;;5.29;100.00
10466;BME280;5280;42.600;23.556;2023-02-28T04:31:47;93906.84;;;5.23;100.00
10466;BME280;5280;42.600;23.556;2023-02-28T04:34:14;93926.41;;;5.33;100.00
10466;BME280;5280;42.600;23.556;2023-02-28T04:36:41;93878.63;;;5.10;100.00
10466;BME280;5280;42.600;23.556;2023-02-28T04:39:09;93916.59;;;5.36;100.00
10466;BME280;5280;42.600;23.556;2023-02-28T04:41:44;93928.78;;;5.37;100.00
10466;BME280;5280;42.600;23.556;2023-02-28T04:44:12;93920.84;;;5.39;100.00
10466;BME280;5280;42.600;23.556;2023-02-28T04:46:41;93919.00;;;5.41;100.00
10466;BME280;5280;42.600;23.556;2023-02-28T04:49:08;93922.22;;;5.46;100.00
10466;BME280;5280;42.600;23.556;2023-02-28T04:51:37;93905.44;;;5.33;100.00
10466;BME280;5280;42.600;23.556;2023-02-28T04:54:04;93920.91;;;5.54;100.00
10466;BME280;5280;42.600;23.556;2023-02-28T04:56:31;93891.78;;;5.43;100.00
10466;BME280;5280;42.600;23.556;2023-02-28T04:58:59;93909.66;;;5.52;100.00
10466;BME280;5280;42.600;23.556;2023-02-28T05:01:28;93863.66;;;5.30;100.00
10466;BME280;5280;42.600;23.556;2023-02-28T05:03:58;93917.50;;;5.70;100.00
10466;BME280;5280;42.600;23.556;2023-02-28T05:06:30;93920.97;;;5.70;100.00
10466;BME280;5280;42.600;23.556;2023-02-28T05:08:58;93927.50;;;5.79;100.00
10466;BME280;5280;42.600;23.556;2023-02-28T05:11:27;93931.75;;;5.81;100.00
10466;BME280;5280;42.600;23.556;2023-02-28T05:14:00;93933.34;;;5.84;100.00
10466;BME280;5280;42.600;23.556;2023-02-28T05:16:28;93926.25;;;5.86;100.00
10466;BME280;5280;42.600;23.556;2023-02-28T05:18:55;93933.06;;;5.90;100.00
10466;BME280;5280;42.600;23.556;2023-02-28T05:21:27;93930.97;;;5.96;100.00
10466;BME280;5280;42.600;23.556;2023-02-28T05:23:55;93929.88;;;6.00;100.00
10466;BME280;5280;42.600;23.556;2023-02-28T05:26:23;93805.69;;;5.36;100.00
10466;BME280;5280;42.600;23.556;2023-02-28T05:28:50;93884.69;;;5.78;100.00
10466;BME280;5280;42.600;23.556;2023-02-28T05:31:19;93920.00;;;6.05;100.00
10466;BME280;5280;42.600;23.556;2023-02-28T05:33:47;93891.72;;;5.78;100.00
10466;BME280;5280;42.600;23.556;2023-02-28T05:36:13;93948.97;;;6.20;100.00
10466;BME280;5280;42.600;23.556;2023-02-28T05:38:41;93958.09;;;6.28;100.00
10466;BME280;5280;42.600;23.556;2023-02-28T05:41:08;93958.03;;;6.30;100.00
10466;BME280;5280;42.600;23.556;2023-02-28T05:43:36;93961.69;;;6.27;100.00
10466;BME280;5280;42.600;23.556;2023-02-28T05:46:05;93953.72;;;6.29;100.00
10466;BME280;5280;42.600;23.556;2023-02-28T05:48:34;93954.31;;;6.34;100.00
10466;BME280;5280;42.600;23.556;2023-02-28T05:51:02;93957.38;;;6.42;100.00
10466;BME280;5280;42.600;23.556;2023-02-28T05:53:29;93964.50;;;6.40;100.00
10466;BME280;5280;42.600;23.556;2023-02-28T05:55:57;93947.53;;;6.30;100.00
10466;BME280;5280;42.600;23.556;2023-02-28T05:58:24;93975.16;;;6.37;100.00
10466;BME280;5280;42.600;23.556;2023-02-28T06:00:56;93937.53;;;6.21;100.00
10466;BME280;5280;42.600;23.556;2023-02-28T06:03:23;93965.25;;;6.42;100.00
10466;BME280;5280;42.600;23.556;2023-02-28T06:05:54;93932.25;;;6.05;100.00
10466;BME280;5280;42.600;23.556;2023-02-28T06:08:21;93940.75;;;6.26;100.00
10466;BME280;5280;42.600;23.556;2023-02-28T06:10:48;93919.91;;;6.07;100.00
10466;BME280;5280;42.600;23.556;2023-02-28T06:13:15;93977.28;;;6.46;100.00
10466;BME280;5280;42.600;23.556;2023-02-28T06:15:42;93966.72;;;6.47;100.00
10466;BME280;5280;42.600;23.556;2023-02-28T06:18:09;93950.69;;;6.36;100.00
10466;BME280;5280;42.600;23.556;2023-02-28T06:20:36;93950.38;;;6.42;100.00
10466;BME280;5280;42.600;23.556;2023-02-28T06:23:07;93966.88;;;6.60;100.00
10466;BME280;5280;42.600;23.556;2023-02-28T06:25:34;93974.94;;;6.57;100.00
10466;BME280;5280;42.600;23.556;2023-02-28T06:28:01;93970.34;;;6.61;100.00
10466;BME280;5280;42.600;23.556;2023-02-28T06:30:28;93958.09;;;6.61;100.00
10466;BME280;5280;42.600;23.556;2023-02-28T06:32:56;93963.00;;;6.67;100.00
10466;BME280;5280;42.600;23.556;2023-02-28T06:35:23;93983.84;;;6.86;100.00
10466;BME280;5280;42.600;23.556;2023-02-28T06:37:50;93968.22;;;6.83;100.00
10466;BME280;5280;42.600;23.556;2023-02-28T06:40:18;93981.81;;;7.07;100.00
10466;BME280;5280;42.600;23.556;2023-02-28T06:42:46;93973.81;;;6.92;100.00
10466;BME280;5280;42.600;23.556;2023-02-28T06:45:13;93901.91;;;6.64;100.00
10466;BME280;5280;42.600;23.556;2023-02-28T06:47:41;93987.53;;;7.13;100.00
10466;BME280;5280;42.600;23.556;2023-02-28T06:50:11;93891.41;;;6.48;100.00
10466;BME280;5280;42.600;23.556;2023-02-28T06:52:41;93985.34;;;7.21;100.00
10466;BME280;5280;42.600;23.556;2023-02-28T06:55:09;93994.47;;;7.30;100.00
10466;BME280;5280;42.600;23.556;2023-02-28T06:57:37;93899.84;;;6.84;100.00
10466;BME280;5280;42.600;23.556;2023-02-28T07:00:06;93988.53;;;7.42;100.00
10466;BME280;5280;42.600;23.556;2023-02-28T07:02:34;93977.47;;;7.51;100.00
10466;BME280;5280;42.600;23.556;2023-02-28T07:05:01;93978.81;;;7.58;100.00
10466;BME280;5280;42.600;23.556;2023-02-28T07:07:28;93985.56;;;7.62;100.00
10466;BME280;5280;42.600;23.556;2023-02-28T07:09:55;93992.69;;;7.76;100.00
10466;BME280;5280;42.600;23.556;2023-02-28T07:12:22;93972.25;;;7.65;100.00
10466;BME280;5280;42.600;23.556;2023-02-28T07:14:50;93986.38;;;7.78;100.00
10466;BME280;5280;42.600;23.556;2023-02-28T07:17:17;93920.16;;;7.42;100.00
10466;BME280;5280;42.600;23.556;2023-02-28T07:19:44;93989.41;;;7.87;100.00
10466;BME280;5280;42.600;23.556;2023-02-28T07:22:11;93990.94;;;7.91;100.00
10466;BME280;5280;42.600;23.556;2023-02-28T07:24:38;93989.03;;;7.93;100.00
10466;BME280;5280;42.600;23.556;2023-02-28T07:27:05;93997.88;;;7.92;100.00
10466;BME280;5280;42.600;23.556;2023-02-28T07:29:32;93983.66;;;7.80;100.00
10466;BME280;5280;42.600;23.556;2023-02-28T07:32:00;93988.38;;;7.89;100.00
10466;BME280;5280;42.600;23.556;2023-02-28T07:34:27;93951.22;;;7.65;100.00
10466;BME280;5280;42.600;23.556;2023-02-28T07:36:54;93980.19;;;7.79;100.00
10466;BME280;5280;42.600;23.556;2023-02-28T07:39:22;93936.72;;;7.58;100.00
10466;BME280;5280;42.600;23.556;2023-02-28T07:41:49;93967.00;;;7.65;100.00
10466;BME280;5280;42.600;23.556;2023-02-28T07:44:19;93996.56;;;7.99;100.00
10466;BME280;5280;42.600;23.556;2023-02-28T07:46:46;93925.91;;;7.63;100.00
10466;BME280;5280;42.600;23.556;2023-02-28T07:49:15;93966.31;;;7.92;100.00
10466;BME280;5280;42.600;23.556;2023-02-28T07:51:42;93927.53;;;7.65;100.00
10466;BME280;5280;42.600;23.556;2023-02-28T07:54:09;93972.22;;;7.95;100.00
10466;BME280;5280;42.600;23.556;2023-02-28T07:56:36;93969.97;;;8.03;100.00
10466;BME280;5280;42.600;23.556;2023-02-28T07:59:02;93933.97;;;7.90;100.00
10466;BME280;5280;42.600;23.556;2023-02-28T08:01:30;93980.91;;;8.26;100.00
10466;BME280;5280;42.600;23.556;2023-02-28T08:03:56;93977.19;;;8.30;100.00
10466;BME280;5280;42.600;23.556;2023-02-28T08:06:25;93881.47;;;7.58;100.00
10466;BME280;5280;42.600;23.556;2023-02-28T08:08:53;93969.47;;;8.41;100.00
10466;BME280;5280;42.600;23.556;2023-02-28T08:11:21;93970.50;;;8.38;100.00
10466;BME280;5280;42.600;23.556;2023-02-28T08:13:48;93919.97;;;8.03;100.00
10466;BME280;5280;42.600;23.556;2023-02-28T08:16:15;93945.38;;;8.33;100.00
10466;BME280;5280;42.600;23.556;2023-02-28T08:18:47;93953.28;;;8.47;100.00
10466;BME280;5280;42.600;23.556;2023-02-28T08:21:14;93916.31;;;8.20;100.00
10466;BME280;5280;42.600;23.556;2023-02-28T08:23:43;93924.59;;;8.42;100.00
10466;BME280;5280;42.600;23.556;2023-02-28T08:26:10;93979.31;;;8.80;100.00
10466;BME280;5280;42.600;23.556;2023-02-28T08:28:37;93975.63;;;8.82;100.00
10466;BME280;5280;42.600;23.556;2023-02-28T08:31:09;93983.44;;;8.84;100.00
10466;BME280;5280;42.600;23.556;2023-02-28T08:33:37;93964.72;;;8.88;100.00
10466;BME280;5280;42.600;23.556;2023-02-28T08:36:05;93983.41;;;8.98;100.00
10466;BME280;5280;42.600;23.556;2023-02-28T08:38:33;93968.94;;;8.91;100.00
10466;BME280;5280;42.600;23.556;2023-02-28T08:41:03;93915.84;;;8.56;100.00
10466;BME280;5280;42.600;23.556;2023-02-28T08:43:31;93981.63;;;8.98;100.00
10466;BME280;5280;42.600;23.556;2023-02-28T08:45:58;93921.75;;;8.59;100.00
10466;BME280;5280;42.600;23.556;2023-02-28T08:48:26;93979.69;;;8.74;100.00
10466;BME280;5280;42.600;23.556;2023-02-28T08:50:57;93991.72;;;8.92;100.00
10466;BME280;5280;42.600;23.556;2023-02-28T08:53:24;93873.16;;;8.08;100.00
10466;BME280;5280;42.600;23.556;2023-02-28T08:55:58;93976.03;;;8.62;100.00
10466;BME280;5280;42.600;23.556;2023-02-28T08:58:27;93994.78;;;8.72;100.00
10466;BME280;5280;42.600;23.556;2023-02-28T09:00:55;93927.56;;;8.22;100.00
10466;BME280;5280;42.600;23.556;2023-02-28T09:03:22;93993.63;;;8.76;100.00
10466;BME280;5280;42.600;23.556;2023-02-28T09:05:54;93979.13;;;8.69;100.00
10466;BME280;5280;42.600;23.556;2023-02-28T09:08:22;93969.09;;;8.61;100.00
10466;BME280;5280;42.600;23.556;2023-02-28T09:10:49;93945.47;;;8.45;100.00
10466;BME280;5280;42.600;23.556;2023-02-28T09:13:17;93945.94;;;8.52;100.00
10466;BME280;5280;42.600;23.556;2023-02-28T09:15:46;93972.09;;;8.69;100.00
10466;BME280;5280;42.600;23.556;2023-02-28T09:18:12;93989.47;;;9.00;100.00
10466;BME280;5280;42.600;23.556;2023-02-28T09:20:40;93992.94;;;9.00;100.00
10466;BME280;5280;42.600;23.556;2023-02-28T09:23:08;93931.91;;;8.66;100.00
10466;BME280;5280;42.600;23.556;2023-02-28T09:25:35;93994.69;;;9.14;100.00
10466;BME280;5280;42.600;23.556;2023-02-28T09:28:05;93967.72;;;8.96;100.00
10466;BME280;5280;42.600;23.556;2023-02-28T09:30:32;93980.19;;;9.07;100.00
10466;BME280;5280;42.600;23.556;2023-02-28T09:33:02;93907.34;;;8.65;100.00
10466;BME280;5280;42.600;23.556;2023-02-28T09:35:29;93947.88;;;8.91;100.00
10466;BME280;5280;42.600;23.556;2023-02-28T09:37:57;94013.88;;;9.30;100.00
10466;BME280;5280;42.600;23.556;2023-02-28T09:40:25;94023.09;;;9.23;100.00
10466;BME280;5280;42.600;23.556;2023-02-28T09:42:55;93996.88;;;9.07;100.00
10466;BME280;5280;42.600;23.556;2023-02-28T09:45:24;93935.09;;;8.71;100.00
10466;BME280;5280;42.600;23.556;2023-02-28T09:47:56;94001.44;;;9.18;100.00
10466;BME280;5280;42.600;23.556;2023-02-28T09:50:32;94025.09;;;9.20;100.00
10466;BME280;5280;42.600;23.556;2023-02-28T09:53:02;93961.09;;;9.03;100.00
10466;BME280;5280;42.600;23.556;2023-02-28T09:55:33;93995.25;;;9.19;100.00
10466;BME280;5280;42.600;23.556;2023-02-28T09:58:01;93994.66;;;9.28;100.00
10466;BME280;5280;42.600;23.556;2023-02-28T10:00:33;93997.53;;;9.38;100.00
10466;BME280;5280;42.600;23.556;2023-02-28T10:03:10;93963.47;;;8.94;100.00
10466;BME280;5280;42.600;23.556;2023-02-28T10:05:49;93993.75;;;9.15;100.00
10466;BME280;5280;42.600;23.556;2023-02-28T10:08:22;93993.38;;;9.21;100.00
10466;BME280;5280;42.600;23.556;2023-02-28T10:10:54;93950.75;;;9.00;100.00
10466;BME280;5280;42.600;23.556;2023-02-28T10:13:26;93989.19;;;9.31;100.00
10466;BME280;5280;42.600;23.556;2023-02-28T10:16:01;93981.38;;;9.30;100.00
10466;BME280;5280;42.600;23.556;2023-02-28T10:18:36;93985.41;;;9.35;100.00
10466;BME280;5280;42.600;23.556;2023-02-28T10:21:14;93985.59;;;9.32;100.00
10466;BME280;5280;42.600;23.556;2023-02-28T10:23:44;93936.72;;;9.00;100.00
10466;BME280;5280;42.600;23.556;2023-02-28T10:26:14;93932.22;;;8.88;100.00
10466;BME280;5280;42.600;23.556;2023-02-28T10:28:43;93944.72;;;8.98;100.00
10466;BME280;5280;42.600;23.556;2023-02-28T10:31:13;93971.41;;;9.21;100.00
10466;BME280;5280;42.600;23.556;2023-02-28T10:33:42;93978.78;;;9.16;100.00
10466;BME280;5280;42.600;23.556;2023-02-28T10:36:13;94002.41;;;9.17;100.00
10466;BME280;5280;42.600;23.556;2023-02-28T10:38:43;93916.28;;;8.62;100.00
10466;BME280;5280;42.600;23.556;2023-02-28T10:41:12;93919.84;;;8.76;100.00
10466;BME280;5280;42.600;23.556;2023-02-28T10:43:40;93917.59;;;8.70;100.00
10466;BME280;5280;42.600;23.556;2023-02-28T10:46:15;93919.00;;;8.75;100.00
10466;BME280;5280;42.600;23.556;2023-02-28T10:49:01;93949.81;;;9.01;100.00
10466;BME280;5280;42.600;23.556;2023-02-28T10:51:37;93956.59;;;9.05;100.00
10466;BME280;5280;42.600;23.556;2023-02-28T10:54:05;93918.31;;;8.86;100.00
10466;BME280;5280;42.600;23.556;2023-02-28T10:56:32;93882.66;;;8.80;100.00
10466;BME280;5280;42.600;23.556;2023-02-28T10:59:01;93904.59;;;9.07;100.00
10466;BME280;5280;42.600;23.556;2023-02-28T11:01:37;93892.06;;;9.11;100.00
10466;BME280;5280;42.600;23.556;2023-02-28T11:04:16;93948.81;;;9.43;100.00
10466;BME280;5280;42.600;23.556;2023-02-28T11:06:46;93884.69;;;9.16;100.00
10466;BME280;5280;42.600;23.556;2023-02-28T11:09:23;93934.97;;;9.40;100.00
10466;BME280;5280;42.600;23.556;2023-02-28T11:11:51;93940.19;;;9.27;100.00
10466;BME280;5280;42.600;23.556;2023-02-28T11:14:21;93891.53;;;9.06;100.00
10466;BME280;5280;42.600;23.556;2023-02-28T11:16:49;93813.22;;;8.67;100.00
10466;BME280;5280;42.600;23.556;2023-02-28T11:19:20;93942.13;;;9.38;100.00
10466;BME280;5280;42.600;23.556;2023-02-28T11:21:54;93932.66;;;9.35;100.00
10466;BME280;5280;42.600;23.556;2023-02-28T11:24:25;93870.13;;;9.11;100.00
10466;BME280;5280;42.600;23.556;2023-02-28T11:26:54;93846.00;;;8.90;100.00
10466;BME280;5280;42.600;23.556;2023-02-28T11:29:24;93813.09;;;8.83;100.00
10466;BME280;5280;42.600;23.556;2023-02-28T11:32:09;93928.47;;;9.45;100.00
10466;BME280;5280;42.600;23.556;2023-02-28T11:34:40;93926.75;;;9.44;100.00
10466;BME280;5280;42.600;23.556;2023-02-28T11:37:13;93848.56;;;8.91;100.00
10466;BME280;5280;42.600;23.556;2023-02-28T11:39:41;93822.09;;;8.66;100.00
10466;BME280;5280;42.600;23.556;2023-02-28T11:42:29;93824.56;;;8.82;100.00
10466;BME280;5280;42.600;23.556;2023-02-28T11:45:12;93813.22;;;8.67;100.00
10466;BME280;5280;42.600;23.556;2023-02-28T11:47:47;93899.94;;;9.38;100.00
10466;BME280;5280;42.600;23.556;2023-02-28T11:50:31;93913.91;;;9.52;100.00
10466;BME280;5280;42.600;23.556;2023-02-28T11:53:14;93872.47;;;9.28;100.00
10466;BME280;5280;42.600;23.556;2023-02-28T11:55:47;93897.44;;;9.49;100.00
10466;BME280;5280;42.600;23.556;2023-02-28T11:58:33;93914.84;;;9.51;100.00
10466;BME280;5280;42.600;23.556;2023-02-28T12:01:15;93899.84;;;9.52;100.00
10466;BME280;5280;42.600;23.556;2023-02-28T12:03:58;93902.09;;;9.58;100.00
10466;BME280;5280;42.600;23.556;2023-02-28T12:06:33;93878.97;;;9.49;100.00
10466;BME280;5280;42.600;23.556;2023-02-28T12:09:27;93904.84;;;9.82;100.00
10466;BME280;5280;42.600;23.556;2023-02-28T12:12:03;93900.44;;;9.82;100.00
10466;BME280;5280;42.600;23.556;2023-02-28T12:14:49;93890.19;;;9.78;100.00
10466;BME280;5280;42.600;23.556;2023-02-28T12:17:38;93909.00;;;9.86;100.00
10466;BME280;5280;42.600;23.556;2023-02-28T12:20:16;93909.22;;;9.96;100.00
10466;BME280;5280;42.600;23.556;2023-02-28T12:22:50;93896.63;;;9.86;100.00
10466;BME280;5280;42.600;23.556;2023-02-28T12:25:37;93896.66;;;9.99;100.00
10466;BME280;5280;42.600;23.556;2023-02-28T12:28:10;93901.06;;;10.11;100.00
10466;BME280;5280;42.600;23.556;2023-02-28T12:30:43;93851.47;;;9.91;100.00
10466;BME280;5280;42.600;23.556;2023-02-28T12:33:15;93857.16;;;9.85;100.00
10466;BME280;5280;42.600;23.556;2023-02-28T12:35:47;93894.00;;;9.99;100.00
10466;BME280;5280;42.600;23.556;2023-02-28T12:38:20;93844.13;;;9.57;100.00
10466;BME280;5280;42.600;23.556;2023-02-28T12:40:52;93888.19;;;9.94;100.00
10466;BME280;5280;42.600;23.556;2023-02-28T12:43:22;93894.53;;;10.04;100.00
10466;BME280;5280;42.600;23.556;2023-02-28T12:45:56;93891.56;;;10.09;100.00
10466;BME280;5280;42.600;23.556;2023-02-28T12:48:29;93897.81;;;9.95;100.00
10466;BME280;5280;42.600;23.556;2023-02-28T12:50:59;93875.72;;;9.83;100.00
10466;BME280;5280;42.600;23.556;2023-02-28T12:53:30;93887.13;;;9.97;100.00
10466;BME280;5280;42.600;23.556;2023-02-28T12:56:10;93887.25;;;9.95;100.00
10466;BME280;5280;42.600;23.556;2023-02-28T12:58:43;93883.75;;;9.94;100.00
10466;BME280;5280;42.600;23.556;2023-02-28T13:01:39;93823.44;;;9.38;100.00
10466;BME280;5280;42.600;23.556;2023-02-28T13:04:27;93891.88;;;9.79;100.00
10466;BME280;5280;42.600;23.556;2023-02-28T13:07:17;93861.34;;;9.49;100.00
10466;BME280;5280;42.600;23.556;2023-02-28T13:09:52;93881.72;;;9.73;100.00
10466;BME280;5280;42.600;23.556;2023-02-28T13:12:21;93789.88;;;9.27;100.00
10466;BME280;5280;42.600;23.556;2023-02-28T13:14:49;93882.91;;;9.81;100.00
10466;BME280;5280;42.600;23.556;2023-02-28T13:17:19;93884.06;;;10.03;100.00
10466;BME280;5280;42.600;23.556;2023-02-28T13:19:57;93877.28;;;10.11;100.00
10466;BME280;5280;42.600;23.556;2023-02-28T13:22:41;93839.38;;;9.87;100.00
10466;BME280;5280;42.600;23.556;2023-02-28T13:31:33;93872.25;;;10.08;100.00